Kastav — 9AA6417 — position and weather

sailwx.info

Track history (hours):
 
Tides and Currents Weather Stations Pressure Air Temp Water Temp Dewpoint Dewpoint Depression Visibility Wind Speed Wind Dir Waves Ship Positions

Kastav

Last reported at 2017-Oct-19 13:57 UTC. Time now 2017-Nov-23 00:22 UTC.
Position N 25°29' W 079°35'.
Warning: this ship's position is 34 days out of date.

Length 195 m; draft 8 m.

Type: Other ship. MMSI: 238257000.

Date/timePositionNaut miles runAvg speedWind from/ knotsBaromVisibWave heightAir tempDewpointWater temp
2017-Oct-19 13:57N 25°29' W 079°35'511.4
2017-Oct-19 13:30N 25°34' W 079°34'611.0
2017-Oct-19 13:00N 25°40' W 079°33'611.1
2017-Oct-19 12:30N 25°45' W 079°32'612.8
2017-Oct-19 11:59N 25°52' W 079°31'613.0
2017-Oct-19 11:30N 25°58' W 079°30'713.0
2017-Oct-19 10:58N 26°05' W 079°29'613.0
2017-Oct-19 10:30N 26°11' W 079°28'66612.9
2017-Oct-17 06:42N 36°51' W 075°50'313.9
2017-Oct-17 06:30N 36°52' W 075°53'612.9
2017-Oct-17 06:00N 36°56' W 075°59'510.3
2017-Oct-17 05:30N 36°58' W 076°05'11 8.9
2017-Oct-17 04:15N 36°59' W 076°19'2 0.4
2017-Oct-16 23:39N 36°58' W 076°21'0 0.7
2017-Oct-16 23:31N 36°58' W 076°21'3 7.0
2017-Oct-16 23:01N 36°55' W 076°20'4 8.7
2017-Oct-16 22:31N 36°51' W 076°18'2 5.0
2017-Oct-16 22:01N 36°48' W 076°17'0 0.6
2017-Oct-16 21:31N 36°48' W 076°17'0 0.4
2017-Oct-16 21:01N 36°48' W 076°18'0 0.4
2017-Oct-16 20:31N 36°48' W 076°18'0 0.0
2017-Oct-16 19:58N 36°48' W 076°18'0 0.0
2017-Oct-16 19:25N 36°48' W 076°18'0 0.0
2017-Oct-16 18:58N 36°48' W 076°18'0 0.0
2017-Oct-16 18:28N 36°48' W 076°18'0 0.0
2017-Oct-16 17:58N 36°48' W 076°18'0 0.0
2017-Oct-16 17:28N 36°48' W 076°18'0 0.0
2017-Oct-16 16:58N 36°48' W 076°18'0 0.0
2017-Oct-16 16:28N 36°48' W 076°18'0 0.0
2017-Oct-16 15:58N 36°48' W 076°18'0 0.0
2017-Oct-16 15:28N 36°48' W 076°18'0 0.0
2017-Oct-16 14:58N 36°48' W 076°18'0 0.0
2017-Oct-16 13:58N 36°48' W 076°18'0 0.0
2017-Oct-16 13:28N 36°48' W 076°18'0 0.0
2017-Oct-16 12:58N 36°48' W 076°18'0 0.0
2017-Oct-16 12:28N 36°48' W 076°18'0 0.0
2017-Oct-16 11:58N 36°48' W 076°18'0 0.0
2017-Oct-16 11:28N 36°48' W 076°18'0 0.0
2017-Oct-16 10:58N 36°48' W 076°18'0 0.0
2017-Oct-16 10:28N 36°48' W 076°18'0 0.0
2017-Oct-16 09:58N 36°48' W 076°18'0 0.0
2017-Oct-16 09:22N 36°48' W 076°18'0 0.0
2017-Oct-16 08:55N 36°48' W 076°18'0 0.0
2017-Oct-16 08:28N 36°48' W 076°18'0 0.0
2017-Oct-16 07:58N 36°48' W 076°18'0 0.0
2017-Oct-16 07:28N 36°48' W 076°18'0 0.0
2017-Oct-16 06:58N 36°48' W 076°18'0 0.0
2017-Oct-16 06:28N 36°48' W 076°18'0 0.0
2017-Oct-16 05:58N 36°48' W 076°18'0 0.0
2017-Oct-16 05:25N 36°48' W 076°18'0 0.0
2017-Oct-16 04:58N 36°48' W 076°18'0 0.0
2017-Oct-16 04:28N 36°48' W 076°18'0 0.0
2017-Oct-16 03:58N 36°48' W 076°18'0 0.0
2017-Oct-16 03:28N 36°48' W 076°18'0 0.0
2017-Oct-16 02:58N 36°48' W 076°18'0 0.0
2017-Oct-16 02:28N 36°48' W 076°18'0 0.0
2017-Oct-16 01:58N 36°48' W 076°18'0 0.0
2017-Oct-16 01:28N 36°48' W 076°18'0 0.0
2017-Oct-16 00:58N 36°48' W 076°18'0 0.0
2017-Oct-16 00:28N 36°48' W 076°18'0 0.0
2017-Oct-15 23:58N 36°48' W 076°18'0 0.0
2017-Oct-15 23:28N 36°48' W 076°18'0 0.0
2017-Oct-15 22:58N 36°48' W 076°18'0 0.0
2017-Oct-15 22:31N 36°48' W 076°18'0 0.2
2017-Oct-15 22:01N 36°48' W 076°18'2 3.8
2017-Oct-15 21:31N 36°50' W 076°18'3 5.1
2017-Oct-15 21:01N 36°52' W 076°19'5 9.1
2017-Oct-15 20:30N 36°56' W 076°20'1110.1
2017-Oct-15 19:25N 36°59' W 076°07'512.7
2017-Oct-15 19:01N 36°57' W 076°01'5 9.5
2017-Oct-15 18:31N 36°55' W 075°55'  
Track history (hours):
 
Tides and Currents Weather Stations Pressure Air Temp Water Temp Dewpoint Dewpoint Depression Visibility Wind Speed Wind Dir Waves Ship Positions

Kastav

Last reported at 2017-Oct-19 13:57 UTC. Time now 2017-Nov-23 00:22 UTC.
Position N 25°29' W 079°35'.
Warning: this ship's position is 34 days out of date.

Length 195 m; draft 8 m.

Type: Other ship. MMSI: 238257000.

Date/timePositionNaut miles runAvg speedWind from/ knotsBaromVisibWave heightAir tempDewpointWater temp
2017-Oct-19 13:57N 25°29' W 079°35'511.4
2017-Oct-19 13:30N 25°34' W 079°34'611.0
2017-Oct-19 13:00N 25°40' W 079°33'611.1
2017-Oct-19 12:30N 25°45' W 079°32'612.8
2017-Oct-19 11:59N 25°52' W 079°31'613.0
2017-Oct-19 11:30N 25°58' W 079°30'713.0
2017-Oct-19 10:58N 26°05' W 079°29'613.0
2017-Oct-19 10:30N 26°11' W 079°28'66612.9
2017-Oct-17 06:42N 36°51' W 075°50'313.9
2017-Oct-17 06:30N 36°52' W 075°53'612.9
2017-Oct-17 06:00N 36°56' W 075°59'510.3
2017-Oct-17 05:30N 36°58' W 076°05'11 8.9
2017-Oct-17 04:15N 36°59' W 076°19'2 0.4
2017-Oct-16 23:39N 36°58' W 076°21'0 0.7
2017-Oct-16 23:31N 36°58' W 076°21'3 7.0
2017-Oct-16 23:01N 36°55' W 076°20'4 8.7
2017-Oct-16 22:31N 36°51' W 076°18'2 5.0
2017-Oct-16 22:01N 36°48' W 076°17'0 0.6
2017-Oct-16 21:31N 36°48' W 076°17'0 0.4
2017-Oct-16 21:01N 36°48' W 076°18'0 0.4
2017-Oct-16 20:31N 36°48' W 076°18'0 0.0
2017-Oct-16 19:58N 36°48' W 076°18'0 0.0
2017-Oct-16 19:25N 36°48' W 076°18'0 0.0
2017-Oct-16 18:58N 36°48' W 076°18'0 0.0
2017-Oct-16 18:28N 36°48' W 076°18'0 0.0
2017-Oct-16 17:58N 36°48' W 076°18'0 0.0
2017-Oct-16 17:28N 36°48' W 076°18'0 0.0
2017-Oct-16 16:58N 36°48' W 076°18'0 0.0
2017-Oct-16 16:28N 36°48' W 076°18'0 0.0
2017-Oct-16 15:58N 36°48' W 076°18'0 0.0
2017-Oct-16 15:28N 36°48' W 076°18'0 0.0
2017-Oct-16 14:58N 36°48' W 076°18'0 0.0
2017-Oct-16 13:58N 36°48' W 076°18'0 0.0
2017-Oct-16 13:28N 36°48' W 076°18'0 0.0
2017-Oct-16 12:58N 36°48' W 076°18'0 0.0
2017-Oct-16 12:28N 36°48' W 076°18'0 0.0
2017-Oct-16 11:58N 36°48' W 076°18'0 0.0
2017-Oct-16 11:28N 36°48' W 076°18'0 0.0
2017-Oct-16 10:58N 36°48' W 076°18'0 0.0
2017-Oct-16 10:28N 36°48' W 076°18'0 0.0
2017-Oct-16 09:58N 36°48' W 076°18'0 0.0
2017-Oct-16 09:22N 36°48' W 076°18'0 0.0
2017-Oct-16 08:55N 36°48' W 076°18'0 0.0
2017-Oct-16 08:28N 36°48' W 076°18'0 0.0
2017-Oct-16 07:58N 36°48' W 076°18'0 0.0
2017-Oct-16 07:28N 36°48' W 076°18'0 0.0
2017-Oct-16 06:58N 36°48' W 076°18'0 0.0
2017-Oct-16 06:28N 36°48' W 076°18'0 0.0
2017-Oct-16 05:58N 36°48' W 076°18'0 0.0
2017-Oct-16 05:25N 36°48' W 076°18'0 0.0
2017-Oct-16 04:58N 36°48' W 076°18'0 0.0
2017-Oct-16 04:28N 36°48' W 076°18'0 0.0
2017-Oct-16 03:58N 36°48' W 076°18'0 0.0
2017-Oct-16 03:28N 36°48' W 076°18'0 0.0
2017-Oct-16 02:58N 36°48' W 076°18'0 0.0
2017-Oct-16 02:28N 36°48' W 076°18'0 0.0
2017-Oct-16 01:58N 36°48' W 076°18'0 0.0
2017-Oct-16 01:28N 36°48' W 076°18'0 0.0
2017-Oct-16 00:58N 36°48' W 076°18'0 0.0
2017-Oct-16 00:28N 36°48' W 076°18'0 0.0
2017-Oct-15 23:58N 36°48' W 076°18'0 0.0
2017-Oct-15 23:28N 36°48' W 076°18'0 0.0
2017-Oct-15 22:58N 36°48' W 076°18'0 0.0
2017-Oct-15 22:31N 36°48' W 076°18'0 0.2
2017-Oct-15 22:01N 36°48' W 076°18'2 3.8
2017-Oct-15 21:31N 36°50' W 076°18'3 5.1
2017-Oct-15 21:01N 36°52' W 076°19'5 9.1
2017-Oct-15 20:30N 36°56' W 076°20'1110.1
2017-Oct-15 19:25N 36°59' W 076°07'512.7
2017-Oct-15 19:01N 36°57' W 076°01'5 9.5
2017-Oct-15 18:31N 36°55' W 075°55'  

Dump ship's entire track history